地図

経路データ

SID SEASON NUMBER BASIN SUBBASIN NAME ISO_TIME NATURE LAT LON WMO_WIND WMO_PRES WMO_AGENCY TRACK_TYPE DIST2LAND LANDFALL IFLAG USA_AGENCY USA_ATCF_ID USA_LAT USA_LON USA_RECORD USA_STATUS USA_WIND USA_PRES USA_SSHS USA_R34_NE USA_R34_SE USA_R34_SW USA_R34_NW USA_R50_NE USA_R50_SE USA_R50_SW USA_R50_NW USA_R64_NE USA_R64_SE USA_R64_SW USA_R64_NW USA_POCI USA_ROCI USA_RMW USA_EYE TOKYO_LAT TOKYO_LON TOKYO_GRADE TOKYO_WIND TOKYO_PRES TOKYO_R50_DIR TOKYO_R50_LONG TOKYO_R50_SHORT TOKYO_R30_DIR TOKYO_R30_LONG TOKYO_R30_SHORT TOKYO_LAND CMA_LAT CMA_LON CMA_CAT CMA_WIND CMA_PRES HKO_LAT HKO_LON HKO_CAT HKO_WIND HKO_PRES NEWDELHI_LAT NEWDELHI_LON NEWDELHI_GRADE NEWDELHI_WIND NEWDELHI_PRES NEWDELHI_CI NEWDELHI_DP NEWDELHI_POCI REUNION_LAT REUNION_LON REUNION_TYPE REUNION_WIND REUNION_PRES REUNION_TNUM REUNION_CI REUNION_RMW REUNION_R34_NE REUNION_R34_SE REUNION_R34_SW REUNION_R34_NW REUNION_R50_NE REUNION_R50_SE REUNION_R50_SW REUNION_R50_NW REUNION_R64_NE REUNION_R64_SE REUNION_R64_SW REUNION_R64_NW BOM_LAT BOM_LON BOM_TYPE BOM_WIND BOM_PRES BOM_TNUM BOM_CI BOM_RMW BOM_R34_NE BOM_R34_SE BOM_R34_SW BOM_R34_NW BOM_R50_NE BOM_R50_SE BOM_R50_SW BOM_R50_NW BOM_R64_NE BOM_R64_SE BOM_R64_SW BOM_R64_NW BOM_ROCI BOM_POCI BOM_EYE BOM_POS_METHOD BOM_PRES_METHOD NADI_LAT NADI_LON NADI_CAT NADI_WIND NADI_PRES WELLINGTON_LAT WELLINGTON_LON WELLINGTON_WIND WELLINGTON_PRES DS824_LAT DS824_LON DS824_STAGE DS824_WIND DS824_PRES TD9636_LAT TD9636_LON TD9636_STAGE TD9636_WIND TD9636_PRES TD9635_LAT TD9635_LON TD9635_WIND TD9635_PRES TD9635_ROCI NEUMANN_LAT NEUMANN_LON NEUMANN_CLASS NEUMANN_WIND NEUMANN_PRES MLC_LAT MLC_LON MLC_CLASS MLC_WIND MLC_PRES USA_GUST BOM_GUST BOM_GUST_PER REUNION_GUST REUNION_GUST_PER USA_SEAHGT USA_SEARAD_NE USA_SEARAD_SE USA_SEARAD_SW USA_SEARAD_NW STORM_SPEED STORM_DIR
2003294N10260 2003 90 EP MM PATRICIA 2003-10-20 12:00:00 TS 10.0000 -100.300 30 1007 hurdat_epa main 724 722 O_____________ hurdat_epa EP162003 10.0000 -100.300 TD 30 1007 -1 1012 150 45 10 288
2003294N10260 2003 90 EP MM PATRICIA 2003-10-20 15:00:00 TS 10.1502 -100.770 main 723 723 P_____________ EP162003 10.1502 -100.770 TD 32 1004 -1 1012 150 45 9 289
2003294N10260 2003 90 EP MM PATRICIA 2003-10-20 18:00:00 TS 10.3000 -101.200 35 1002 hurdat_epa main 728 722 O_____________ hurdat_epa EP162003 10.3000 -101.200 TS 35 1002 0 60 60 60 60 1012 150 45 8 291
2003294N10260 2003 90 EP MM PATRICIA 2003-10-20 21:00:00 TS 10.4499 -101.565 main 734 719 P_____________ EP162003 10.4499 -101.565 TS 40 1001 0 67 67 67 67 1011 150 42 8 294
2003294N10260 2003 90 EP MM PATRICIA 2003-10-21 00:00:00 TS 10.6000 -101.900 45 1000 hurdat_epa main 723 716 O_____________ hurdat_epa EP162003 10.6000 -101.900 TS 45 1000 0 75 75 75 75 1010 150 40 7 294
2003294N10260 2003 90 EP MM PATRICIA 2003-10-21 03:00:00 TS 10.7424 -102.243 main 724 716 P_____________ EP162003 10.7424 -102.243 TS 50 997 0 87 75 75 87 1010 150 40 8 294
2003294N10260 2003 90 EP MM PATRICIA 2003-10-21 06:00:00 TS 10.9000 -102.600 55 994 hurdat_epa main 720 715 O_____________ hurdat_epa EP162003 10.9000 -102.600 TS 55 994 0 100 75 75 100 1010 150 40 8 296
2003294N10260 2003 90 EP MM PATRICIA 2003-10-21 09:00:00 TS 11.1000 -102.992 main 721 712 P_____________ EP162003 11.1000 -102.992 TS 60 990 0 100 75 75 100 1010 150 35 9 297
2003294N10260 2003 90 EP MM PATRICIA 2003-10-21 12:00:00 TS 11.3000 -103.400 65 987 hurdat_epa main 715 709 O_____________ hurdat_epa EP162003 11.3000 -103.400 HU 65 987 1 100 75 75 100 1010 150 30 9 295
2003294N10260 2003 90 EP MM PATRICIA 2003-10-21 15:00:00 TS 11.4724 -103.800 main 711 710 P_____________ EP162003 11.4724 -103.800 HU 65 987 1 100 77 77 100 1010 150 22 8 291
2003294N10260 2003 90 EP MM PATRICIA 2003-10-21 18:00:00 TS 11.6000 -104.200 65 987 hurdat_epa main 720 720 O_____________ hurdat_epa EP162003 11.6000 -104.200 HU 65 987 1 100 80 80 100 1010 150 15 8 283
2003294N10260 2003 90 EP MM PATRICIA 2003-10-21 21:00:00 TS 11.6574 -104.600 main 731 731 P_____________ EP162003 11.6574 -104.600 HU 67 985 1 100 77 77 100 1010 165 17 8 277
2003294N10260 2003 90 EP MM PATRICIA 2003-10-22 00:00:00 TS 11.7000 -105.000 70 984 hurdat_epa main 750 747 O_____________ hurdat_epa EP162003 11.7000 -105.000 HU 70 984 1 100 75 75 100 1010 180 20 8 280
2003294N10260 2003 90 EP MM PATRICIA 2003-10-22 03:00:00 TS 11.7999 -105.392 main 754 750 P_____________ EP162003 11.7999 -105.392 HU 67 985 1 95 82 82 95 1010 180 22 8 284
2003294N10260 2003 90 EP MM PATRICIA 2003-10-22 06:00:00 TS 11.9000 -105.800 65 987 hurdat_epa main 757 757 O_____________ hurdat_epa EP162003 11.9000 -105.800 HU 65 987 1 90 90 90 90 1010 180 25 8 280
2003294N10260 2003 90 EP MM PATRICIA 2003-10-22 09:00:00 TS 11.9499 -106.228 main 772 766 P_____________ EP162003 11.9499 -106.228 HU 62 988 0 90 90 75 90 1010 165 25 9 276
2003294N10260 2003 90 EP MM PATRICIA 2003-10-22 12:00:00 TS 12.0000 -106.700 60 990 hurdat_epa main 784 784 O_____________ hurdat_epa EP162003 12.0000 -106.700 TS 60 990 0 90 90 60 90 1010 150 25 10 278
2003294N10260 2003 90 EP MM PATRICIA 2003-10-22 15:00:00 TS 12.0926 -107.257 main 804 804 P_____________ EP162003 12.0926 -107.257 TS 57 992 0 90 90 45 75 1010 150 27 11 281
2003294N10260 2003 90 EP MM PATRICIA 2003-10-22 18:00:00 TS 12.2000 -107.800 55 994 hurdat_epa main 823 823 O_____________ hurdat_epa EP162003 12.2000 -107.800 TS 55 994 0 90 90 30 60 1010 150 30 10 282
2003294N10260 2003 90 EP MM PATRICIA 2003-10-22 21:00:00 TS 12.2848 -108.215 main 839 839 P_____________ EP162003 12.2848 -108.215 TS 50 997 0 90 90 30 60 1009 150 30 8 284
2003294N10260 2003 90 EP MM PATRICIA 2003-10-23 00:00:00 TS 12.4000 -108.600 45 1000 hurdat_epa main 857 855 O_____________ hurdat_epa EP162003 12.4000 -108.600 TS 45 1000 0 90 90 30 60 1008 150 30 8 291
2003294N10260 2003 90 EP MM PATRICIA 2003-10-23 03:00:00 TS 12.5848 -109.020 main 864 864 P_____________ EP162003 12.5848 -109.020 TS 42 1001 0 90 90 30 60 1008 150 30 10 294
2003294N10260 2003 90 EP MM PATRICIA 2003-10-23 06:00:00 TS 12.8000 -109.500 40 1002 hurdat_epa main 874 871 O_____________ hurdat_epa EP162003 12.8000 -109.500 TS 40 1002 0 90 90 30 60 1008 150 30 11 293
2003294N10260 2003 90 EP MM PATRICIA 2003-10-23 09:00:00 TS 13.0226 -110.092 main 895 893 P_____________ EP162003 13.0226 -110.092 TS 40 1002 0 82 82 1008 150 45 12 289
2003294N10260 2003 90 EP MM PATRICIA 2003-10-23 12:00:00 TS 13.2000 -110.700 40 1003 hurdat_epa main 920 920 O_____________ hurdat_epa EP162003 13.2000 -110.700 TS 40 1003 0 75 75 1008 150 60 11 282
2003294N10260 2003 90 EP MM PATRICIA 2003-10-23 15:00:00 TS 13.2575 -111.245 main 950 950 P_____________ EP162003 13.2575 -111.245 TS 37 1004 0 67 67 1008 135 52 10 276
2003294N10260 2003 90 EP MM PATRICIA 2003-10-23 18:00:00 TS 13.3000 -111.700 35 1005 hurdat_epa main 988 988 O_____________ hurdat_epa EP162003 13.3000 -111.700 TS 35 1005 0 60 60 1009 120 45 8 284
2003294N10260 2003 90 EP MM PATRICIA 2003-10-23 21:00:00 TS 13.4499 -112.052 main 1010 1002 P_____________ EP162003 13.4499 -112.052 TS 35 1005 0 60 60 1009 120 37 7 297
2003294N10260 2003 90 EP MM PATRICIA 2003-10-24 00:00:00 TS 13.6000 -112.300 35 1005 hurdat_epa main 1010 1010 O_____________ hurdat_epa EP162003 13.6000 -112.300 TS 35 1005 0 60 60 30 30 1009 120 30 5 297
2003294N10260 2003 90 EP MM PATRICIA 2003-10-24 03:00:00 TS 13.6574 -112.473 main 1019 1019 P_____________ EP162003 13.6574 -112.473 TS 35 1005 0 60 60 30 30 1009 120 30 3 289
2003294N10260 2003 90 EP MM PATRICIA 2003-10-24 06:00:00 TS 13.7000 -112.600 35 1005 hurdat_epa main 1027 1027 O_____________ hurdat_epa EP162003 13.7000 -112.600 TS 35 1005 0 60 60 30 30 1009 120 30 3 294
2003294N10260 2003 90 EP MM PATRICIA 2003-10-24 09:00:00 TS 13.7775 -112.750 main 1035 1035 P_____________ EP162003 13.7775 -112.750 TS 37 1003 0 60 60 30 30 1009 120 30 4 304
2003294N10260 2003 90 EP MM PATRICIA 2003-10-24 12:00:00 TS 13.9000 -112.900 40 1002 hurdat_epa main 1036 1031 O_____________ hurdat_epa EP162003 13.9000 -112.900 TS 40 1002 0 60 60 30 30 1009 120 30 4 317
2003294N10260 2003 90 EP MM PATRICIA 2003-10-24 15:00:00 TS 14.0925 -113.050 main 1031 1019 P_____________ EP162003 14.0925 -113.050 TS 40 1002 0 60 60 45 30 1009 120 30 5 324
2003294N10260 2003 90 EP MM PATRICIA 2003-10-24 18:00:00 TS 14.3000 -113.200 40 1002 hurdat_epa main 1019 1012 O_____________ hurdat_epa EP162003 14.3000 -113.200 TS 40 1002 0 60 60 60 30 1009 120 30 5 321
2003294N10260 2003 90 EP MM PATRICIA 2003-10-24 21:00:00 TS 14.4575 -113.350 main 1005 998 P_____________ EP162003 14.4575 -113.350 TS 37 1003 0 60 60 60 30 1009 120 30 4 316
2003294N10260 2003 90 EP MM PATRICIA 2003-10-25 00:00:00 TS 14.6000 -113.500 35 1005 hurdat_epa main 998 992 O_____________ hurdat_epa EP162003 14.6000 -113.500 TS 35 1005 0 60 60 60 30 1009 120 30 4 315
2003294N10260 2003 90 EP MM PATRICIA 2003-10-25 03:00:00 TS 14.7500 -113.650 main 996 979 P_____________ EP162003 14.7500 -113.650 TS 35 1005 0 60 60 30 1009 120 30 4 316
2003294N10260 2003 90 EP MM PATRICIA 2003-10-25 06:00:00 TS 14.9000 -113.800 35 1005 hurdat_epa main 979 974 O_____________ hurdat_epa EP162003 14.9000 -113.800 TS 35 1005 0 60 60 30 1009 120 30 4 316
2003294N10260 2003 90 EP MM PATRICIA 2003-10-25 09:00:00 TS 15.0500 -113.950 main 978 962 P_____________ EP162003 15.0500 -113.950 TS 32 1006 -1 1009 120 30 4 316
2003294N10260 2003 90 EP MM PATRICIA 2003-10-25 12:00:00 TS 15.2000 -114.100 30 1008 hurdat_epa main 962 957 O_____________ hurdat_epa EP162003 15.2000 -114.100 TD 30 1008 -1 1010 120 30 4 317
2003294N10260 2003 90 EP MM PATRICIA 2003-10-25 15:00:00 TS 15.3575 -114.250 main 952 947 P_____________ EP162003 15.3575 -114.250 TD 30 1008 -1 1010 120 37 4 316
2003294N10260 2003 90 EP MM PATRICIA 2003-10-25 18:00:00 TS 15.5000 -114.400 30 1008 hurdat_epa main 947 943 O_____________ hurdat_epa EP162003 15.5000 -114.400 TD 30 1008 -1 1010 120 45 4 312
2003294N10260 2003 90 EP MM PATRICIA 2003-10-25 21:00:00 TS 15.6150 -114.543 main 943 938 P_____________ EP162003 15.6150 -114.543 TD 27 1008 -1 1010 120 45 4 305
2003294N10260 2003 90 EP MM PATRICIA 2003-10-26 00:00:00 TS 15.7000 -114.700 25 1008 hurdat_epa main 944 940 O_____________ hurdat_epa EP162003 15.7000 -114.700 TD 25 1008 -1 1011 120 45 4 294
2003294N10260 2003 90 EP MM PATRICIA 2003-10-26 03:00:00 TS 15.7650 -114.893 main 945 945 P_____________ EP162003 15.7650 -114.893 TD 22 1008 -1 4 285
2003294N10260 2003 90 EP MM PATRICIA 2003-10-26 06:00:00 DS 15.8000 -115.100 20 1009 hurdat_epa main 957 957 O_____________ hurdat_epa EP162003 15.8000 -115.100 LO 20 1009 -3 4 276
2003294N10260 2003 90 EP MM PATRICIA 2003-10-26 09:00:00 DS 15.8075 -115.303 main 969 969 P_____________ EP162003 15.8075 -115.303 LO 20 1009 -3 4 270
2003294N10260 2003 90 EP MM PATRICIA 2003-10-26 12:00:00 DS 15.8000 -115.500 20 1009 hurdat_epa main 981 O_____________ hurdat_epa EP162003 15.8000 -115.500 LO 20 1009 -3 4 268

IBTrACS Databaseについて

本データベースは、米国NOAAが公開する1842年以降の世界の熱帯低気圧のベストトラックデータアーカイブInternational Best Track Archive for Climate Stewardship (IBTrACS)を、ウェブで閲覧しやすい形式に変換したものです。

最終更新日:2021-10-21